»·PEaware :: UAL1806 KSAN-KSFO

UAL1806 :: KSAN-KSFO

FLIGHT INFORMATION

Flight Status: Arrived
Operator:
United Airlines
More flights by this operator :: More flights under this callsign
Pilot: Justin Z. (25672)
Aircraft: AIRBUS A319
(A319)
More flights by this aircraft type
Origin: KSAN San Diego Intl-Lindbergh
United States
Destination: KSFO San Francisco Intl
United States
More flights between these airports :: More routes between these airports
Route: +PADRZ2 IKAYE RIZIN SPLNT STOKD SERFR SERFR4
File this flight plan on PilotEdge
Remarks:
Altitude:
(Current/Filed)
38,000ft
Speed:
(Current/Filed)
450kts
Departed: 04-Jan-20 10:53 AM
Arrived: 04-Jan-20 12:08 PM
Distance/Time
Traveled:
388nm/1:15
Distance/Time
To Go:
Arrived

Flight Plot

Page will automatically refresh every two minutes.


Map Options




Map Legend


Flown Route
Filed Route
Departure Airport
Arrival Airport
Navaid (VOR, NDB)
Fix

Horizontal Profiles

Position Reports

Time Latitude Longitude Heading Altitude Ground
Speed
04-Jan-20 10:36 32.733188 -117.196850 134 19ft 0kts
04-Jan-20 10:37 32.733188 -117.196850 134 19ft 0kts
04-Jan-20 10:39 32.733188 -117.196850 134 19ft 0kts
04-Jan-20 10:40 32.733188 -117.196850 134 19ft 0kts
04-Jan-20 10:41 32.733188 -117.196850 134 19ft 0kts
04-Jan-20 10:42 32.733188 -117.196850 134 19ft 0kts
04-Jan-20 10:43 32.733188 -117.196850 134 19ft 0kts
04-Jan-20 10:44 32.733188 -117.196850 134 19ft 0kts
04-Jan-20 10:45 32.733856 -117.197647 134 19ft 2kts
04-Jan-20 10:46 32.733863 -117.197655 134 19ft 0kts
04-Jan-20 10:47 32.733863 -117.197655 134 19ft 0kts
04-Jan-20 10:48 32.733863 -117.197655 134 19ft 0kts
04-Jan-20 10:49 32.733863 -117.197655 134 19ft 0kts
04-Jan-20 10:50 32.733863 -117.197655 134 19ft 0kts
04-Jan-20 10:51 32.733863 -117.197655 134 19ft 0kts
04-Jan-20 10:52 32.733797 -117.196549 89 19ft 22kts
04-Jan-20 10:53 32.731337 -117.184668 107 19ft 47kts
04-Jan-20 10:54 32.730631 -117.181414 70 19ft 0kts
04-Jan-20 10:55 32.730631 -117.181414 70 19ft 0kts
04-Jan-20 10:56 32.731503 -117.181234 287 19ft 0kts
04-Jan-20 10:57 32.738972 -117.209529 301 757ft 175kts
04-Jan-20 10:58 32.769836 -117.263337 303 3465ft 233kts
04-Jan-20 10:58 32.802115 -117.322337 306 6144ft 264kts
04-Jan-20 11:00 32.856013 -117.405102 307 10231ft 277kts
04-Jan-20 11:01 32.907527 -117.485054 306 12647ft 318kts
04-Jan-20 11:01 32.953140 -117.556040 306 14859ft 327kts
04-Jan-20 11:02 33.008239 -117.642021 306 14962ft 325kts
04-Jan-20 11:04 33.074627 -117.739381 313 14965ft 323kts
04-Jan-20 11:04 33.131449 -117.797650 316 14962ft 322kts
04-Jan-20 11:05 33.200185 -117.867909 313 16048ft 328kts
04-Jan-20 11:06 33.265623 -117.946099 311 18533ft 340kts
04-Jan-20 11:07 33.333378 -118.027264 311 20751ft 352kts
04-Jan-20 11:08 33.403718 -118.111505 311 22790ft 363kts
04-Jan-20 11:09 33.476173 -118.198467 310 24625ft 373kts
04-Jan-20 11:10 33.550491 -118.287890 310 26292ft 383kts
04-Jan-20 11:11 33.626687 -118.379788 310 27820ft 391kts
04-Jan-20 11:12 33.704633 -118.474082 309 29242ft 398kts
04-Jan-20 11:13 33.784349 -118.570813 309 30473ft 406kts
04-Jan-20 11:14 33.864764 -118.668719 308 31551ft 414kts
04-Jan-20 11:15 33.946304 -118.768528 308 32579ft 419kts
04-Jan-20 11:16 34.028206 -118.868694 308 33836ft 415kts
04-Jan-20 11:17 34.108060 -118.966837 306 34944ft 411kts
04-Jan-20 11:18 34.177450 -119.075473 295 35847ft 398kts
04-Jan-20 11:19 34.236130 -119.189318 295 36529ft 398kts
04-Jan-20 11:20 34.294480 -119.302991 295 37091ft 398kts
04-Jan-20 11:21 34.352863 -119.417187 295 37571ft 398kts
04-Jan-20 11:22 34.414412 -119.529633 301 37971ft 403kts
04-Jan-20 11:23 34.492068 -119.630820 307 38363ft 407kts
04-Jan-20 11:24 34.571218 -119.728718 306 38374ft 407kts
04-Jan-20 11:25 34.650881 -119.827304 306 38376ft 407kts
04-Jan-20 11:26 34.729823 -119.925151 306 38384ft 407kts
04-Jan-20 11:27 34.808871 -120.023407 306 38395ft 407kts
04-Jan-20 11:28 34.887985 -120.122036 306 38401ft 406kts
04-Jan-20 11:29 34.966680 -120.220309 305 38401ft 403kts
04-Jan-20 11:30 35.043708 -120.316940 303 38401ft 400kts
04-Jan-20 11:31 35.119647 -120.409024 307 38397ft 404kts
04-Jan-20 11:32 35.204469 -120.502630 307 38406ft 403kts
04-Jan-20 11:33 35.287169 -120.595436 307 38409ft 403kts
04-Jan-20 11:34 35.369988 -120.689016 306 38408ft 402kts
04-Jan-20 11:35 35.452318 -120.782329 306 38414ft 402kts
04-Jan-20 11:36 35.539681 -120.869720 311 38423ft 408kts
04-Jan-20 11:37 35.630648 -120.954156 311 38428ft 408kts
04-Jan-20 11:38 35.721478 -121.038751 311 38429ft 408kts
04-Jan-20 11:39 35.811222 -121.122545 311 37060ft 399kts
04-Jan-20 11:40 35.898714 -121.204599 311 33852ft 396kts
04-Jan-20 11:41 35.985592 -121.286266 312 31270ft 382kts
04-Jan-20 11:42 36.069606 -121.364484 315 29826ft 376kts
04-Jan-20 11:43 36.157348 -121.433289 318 28468ft 366kts
04-Jan-20 11:44 36.241998 -121.499325 318 27116ft 354kts
04-Jan-20 11:45 36.323921 -121.563556 319 25614ft 344kts
04-Jan-20 11:46 36.403834 -121.626414 320 24066ft 334kts
04-Jan-20 11:47 36.481137 -121.687560 320 22546ft 327kts
04-Jan-20 11:48 36.557133 -121.747630 321 21008ft 321kts
04-Jan-20 11:49 36.633308 -121.807976 322 19671ft 329kts
04-Jan-20 11:50 36.710639 -121.869337 322 17804ft 324kts
04-Jan-20 11:51 36.794769 -121.908747 341 16218ft 323kts
04-Jan-20 11:52 36.880740 -121.932826 342 14661ft 313kts
04-Jan-20 11:53 36.965102 -121.957241 339 13152ft 302kts
04-Jan-20 11:54 37.044623 -121.988818 339 11694ft 295kts
04-Jan-20 11:55 37.120700 -122.018664 340 10275ft 289kts
04-Jan-20 11:56 37.193694 -122.047126 341 9626ft 254kts
04-Jan-20 11:57 37.259419 -122.072933 342 8445ft 249kts
04-Jan-20 11:58 37.324680 -122.098608 342 7417ft 237kts
04-Jan-20 11:59 37.387869 -122.123044 344 6302ft 227kts
04-Jan-20 12:00 37.452654 -122.145115 344 4135ft 263kts
04-Jan-20 12:01 37.521214 -122.168652 344 3102ft 238kts
04-Jan-20 12:02 37.556365 -122.225577 298 2157ft 193kts
04-Jan-20 12:03 37.577434 -122.276560 299 1490ft 140kts
04-Jan-20 12:04 37.595242 -122.319076 298 763ft 136kts
04-Jan-20 12:05 37.612637 -122.360579 298 22ft 123kts
04-Jan-20 12:06 37.620539 -122.379632 300 31ft 47kts
04-Jan-20 12:07 37.620525 -122.384258 291 32ft 19kts
04-Jan-20 12:08 37.620486 -122.391451 122 32ft 12kts
04-Jan-20 12:09 37.620255 -122.389359 30 32ft 0kts
04-Jan-20 12:10 37.620255 -122.389359 30 32ft 0kts
04-Jan-20 12:11 37.620255 -122.389359 30 32ft 0kts

Navigation Log

Ident Type
Flight plan parsing failed, navigation log unavailable